Portada
METAR-TAF:

METAR-TAF

Aeroports :

Kuopio, Finlàndia

latitud: 63-01N, longitud: 027-48E, altitud: 98 m

Observació

L'informe es va fer fa 25 minuts, a les 05:50 UTC
Vent 8 kt del Oest/Nord-Oest
Temperatura -4°C
Humitat 68%
Pressió 1018 hPa
Visibilitat 10 km o més
sense núvols per sota de 1500 mi sense presència de cumulonimbus.

METAR: EFKU 290550Z AUTO 29008KT CAVOK M04/M09 Q1018

Hora: 09:15 (06:15 UTC)

Pronòstic

L'informe es va fer fa 40 minuts, a les 05:35 UTC
Pronòstic vàlid del 29 a les 06 UTC al 30 a les 06 UTC
Vent 10 kt del Oest/Nord-Oest
Visibilitat 10 km o més
sense núvols per sota de 1500 mi sense presència de cumulonimbus.
Temporalment
l' 29 a les 11 UTC al 29 a les 15 UTC
Escasses núvols a una alçada de 4000 ft, Cumulonimbus.
Probabilitat 30%
l' 29 a les 11 UTC al 29 a les 13 UTC
Vent 15 kt del Oest/Nord-Oest amb ràfegues de 25 kt

TAF: EFKU 290535Z 2906/3006 30010KT CAVOK TEMPO 2911/2915 FEW040CB PROB30 2911/2913 30015G25KT

Observacions i pronòstics meteorològics de més de 4000 aeroports (METAR i TAF).

Les estacions disponibles són els punts grocs i vermells al mapa.

Posi el ratolí al punt desitjat per veure el nom de l'estació.

Feu clic per veure les observacions i els pronòstics meteorològics.

Per canviar el mapa: feu clic els botons verds amb una creu de color negre per apropar; al botó verd amb un guió per allunyar la imatge; o en les fletxes verdes per a mapes adjacents.


METAR-TAF: